createdAt,value
2022-11-28T00:00:14.288Z,4.30
2022-11-28T00:03:35.930Z,4.30
2022-11-28T00:06:57.751Z,4.30
2022-11-28T00:10:19.442Z,4.30
2022-11-28T00:13:41.144Z,4.30
2022-11-28T00:17:04.075Z,4.30
2022-11-28T00:20:25.672Z,4.30
2022-11-28T00:23:47.965Z,4.30
2022-11-28T00:27:09.534Z,4.30
2022-11-28T00:30:31.143Z,4.30
2022-11-28T00:33:54.444Z,4.30
2022-11-28T00:37:16.027Z,4.30
2022-11-28T00:40:37.595Z,4.30
2022-11-28T00:43:59.280Z,4.30
2022-11-28T00:47:20.874Z,4.20
2022-11-28T00:50:43.848Z,4.20
2022-11-28T00:54:06.354Z,4.20
2022-11-28T00:57:27.938Z,4.10
2022-11-28T01:00:49.560Z,4.20
2022-11-28T01:04:12.524Z,4.20
2022-11-28T01:07:35.516Z,4.20
2022-11-28T01:10:57.160Z,4.20
2022-11-28T01:14:19.348Z,4.20
2022-11-28T01:17:40.927Z,4.20
2022-11-28T01:21:02.514Z,4.20
2022-11-28T01:24:25.435Z,4.20
2022-11-28T01:27:47.028Z,4.20
2022-11-28T01:31:09.214Z,4.20
2022-11-28T01:34:30.920Z,4.10
2022-11-28T01:37:52.505Z,4.10
2022-11-28T01:41:16.066Z,4.00
2022-11-28T01:44:56.430Z,4.00
2022-11-28T01:48:20.466Z,4.00
2022-11-28T01:51:43.892Z,3.90
2022-11-28T01:55:05.994Z,3.90
2022-11-28T01:58:29.028Z,3.90
2022-11-28T02:01:50.654Z,3.90
2022-11-28T02:05:12.819Z,3.90
2022-11-28T02:08:35.245Z,3.90
2022-11-28T02:12:09.223Z,3.90
2022-11-28T02:15:41.461Z,3.80
2022-11-28T02:19:13.852Z,3.80
2022-11-28T02:22:40.944Z,3.80
2022-11-28T02:26:23.239Z,3.70
2022-11-28T02:29:55.159Z,3.70
2022-11-28T02:33:21.014Z,3.70
2022-11-28T02:36:47.137Z,3.80
2022-11-28T02:40:11.236Z,3.80
2022-11-28T02:43:35.647Z,3.80
2022-11-28T02:46:59.768Z,3.80
2022-11-28T02:50:24.760Z,3.80
2022-11-28T02:53:46.596Z,3.90
2022-11-28T02:57:08.204Z,3.90
2022-11-28T03:00:30.885Z,3.90
2022-11-28T03:03:55.704Z,3.90
2022-11-28T03:07:24.128Z,3.90
2022-11-28T03:10:50.574Z,4.00
2022-11-28T03:14:16.613Z,4.00
2022-11-28T03:17:43.087Z,4.00
2022-11-28T03:21:08.635Z,4.00
2022-11-28T03:24:34.597Z,4.00
2022-11-28T03:27:58.844Z,4.00
2022-11-28T03:31:21.935Z,3.90
2022-11-28T03:34:45.536Z,3.90
2022-11-28T03:38:09.851Z,3.90
2022-11-28T03:41:34.265Z,3.90
2022-11-28T03:44:58.334Z,3.90
2022-11-28T03:48:23.775Z,3.90
2022-11-28T03:51:47.372Z,3.90
2022-11-28T03:55:11.377Z,3.90
2022-11-28T03:58:35.520Z,3.90
2022-11-28T04:02:01.353Z,3.90
2022-11-28T04:05:27.205Z,3.90
2022-11-28T04:08:52.461Z,3.90
2022-11-28T04:12:19.454Z,3.90
2022-11-28T04:15:45.197Z,3.90
2022-11-28T04:19:09.054Z,3.90
2022-11-28T04:22:32.701Z,3.90
2022-11-28T04:25:56.941Z,3.90
2022-11-28T04:29:20.366Z,3.90
2022-11-28T04:32:46.332Z,3.90
2022-11-28T04:36:08.731Z,3.80
2022-11-28T04:39:32.072Z,3.90
2022-11-28T04:42:56.167Z,3.90
2022-11-28T04:46:21.416Z,3.80
2022-11-28T04:49:44.466Z,3.80
2022-11-28T04:53:09.152Z,3.70
2022-11-28T04:56:33.545Z,3.70
2022-11-28T04:59:55.526Z,3.70
2022-11-28T05:03:17.335Z,3.70
2022-11-28T05:06:40.435Z,3.80
2022-11-28T05:10:02.127Z,3.80
2022-11-28T05:13:23.709Z,3.70
2022-11-28T05:16:45.462Z,3.70
2022-11-28T05:20:07.700Z,3.70
2022-11-28T05:23:30.622Z,3.80
2022-11-28T05:26:52.219Z,3.90
2022-11-28T05:30:14.058Z,3.90
2022-11-28T05:33:35.634Z,3.90
2022-11-28T05:36:57.241Z,3.90
2022-11-28T05:40:20.267Z,3.90
2022-11-28T05:43:41.872Z,3.90
2022-11-28T05:47:03.520Z,3.80
2022-11-28T05:50:25.099Z,3.90
2022-11-28T05:53:46.693Z,3.80
2022-11-28T05:57:09.653Z,3.80
2022-11-28T06:00:31.290Z,3.90
2022-11-28T06:03:53.681Z,3.90
2022-11-28T06:07:15.319Z,3.90
2022-11-28T06:10:36.967Z,4.00
2022-11-28T06:13:59.986Z,4.00
2022-11-28T06:17:21.580Z,4.00
2022-11-28T06:20:43.154Z,4.10
2022-11-28T06:24:04.915Z,4.20
2022-11-28T06:27:26.494Z,4.30
2022-11-28T06:30:49.434Z,4.40
2022-11-28T06:34:11.373Z,4.50
2022-11-28T06:37:32.955Z,4.60
2022-11-28T06:40:55.933Z,4.60
2022-11-28T06:44:17.734Z,4.70
2022-11-28T06:47:40.671Z,4.70
2022-11-28T06:51:03.428Z,4.70
2022-11-28T06:54:25.057Z,4.70
2022-11-28T06:57:46.640Z,4.70
2022-11-28T07:01:09.384Z,4.70
2022-11-28T07:04:32.495Z,4.60
2022-11-28T07:07:54.679Z,4.60
2022-11-28T07:11:17.743Z,4.50
2022-11-28T07:14:39.323Z,4.40
2022-11-28T07:18:00.902Z,4.30
2022-11-28T07:21:24.058Z,4.30
2022-11-28T07:24:46.212Z,4.30
2022-11-28T07:28:07.796Z,4.20
2022-11-28T07:31:29.421Z,4.30
2022-11-28T07:34:51.087Z,4.20
2022-11-28T07:38:14.003Z,4.20
2022-11-28T07:41:35.780Z,4.10
2022-11-28T07:44:57.352Z,4.10
2022-11-28T07:48:18.974Z,4.00
2022-11-28T07:51:40.831Z,4.10
2022-11-28T07:55:03.928Z,4.20
2022-11-28T07:58:25.510Z,4.20
2022-11-28T08:01:47.113Z,4.30
2022-11-28T08:05:09.208Z,4.30
2022-11-28T08:08:31.270Z,4.40
2022-11-28T08:11:54.319Z,4.40
2022-11-28T08:15:16.015Z,4.50
2022-11-28T08:18:38.074Z,4.50
2022-11-28T08:21:59.674Z,4.60
2022-11-28T08:25:21.291Z,4.70
2022-11-28T08:28:44.464Z,4.70
2022-11-28T08:32:06.042Z,4.70
2022-11-28T08:35:27.670Z,4.80
2022-11-28T08:39:03.320Z,4.90
2022-11-28T08:42:31.242Z,5.00
2022-11-28T08:45:54.214Z,5.10
2022-11-28T08:49:15.826Z,5.20
2022-11-28T08:52:37.424Z,5.20
2022-11-28T08:55:59.301Z,5.30
2022-11-28T08:59:21.021Z,5.40
2022-11-28T09:02:43.952Z,5.50
2022-11-28T09:06:05.761Z,5.50
2022-11-28T09:09:32.625Z,5.60
2022-11-28T09:12:54.520Z,5.70
2022-11-28T09:16:16.202Z,5.90
2022-11-28T09:19:39.359Z,6.10
2022-11-28T09:23:01.113Z,6.30
2022-11-28T09:26:23.942Z,6.30
2022-11-28T09:29:45.699Z,6.30
2022-11-28T09:33:07.555Z,6.40
2022-11-28T09:36:32.005Z,6.30
2022-11-28T09:40:12.151Z,6.40
2022-11-28T09:43:36.277Z,6.50
2022-11-28T09:46:59.303Z,6.60
2022-11-28T09:50:22.333Z,6.60
2022-11-28T09:53:47.957Z,6.60
2022-11-28T09:57:13.560Z,6.60
2022-11-28T10:00:37.465Z,6.60
2022-11-28T10:04:00.272Z,6.70
2022-11-28T10:07:27.147Z,6.80
2022-11-28T10:10:55.084Z,6.90
2022-11-28T10:14:28.472Z,6.80
2022-11-28T10:17:54.776Z,6.80
2022-11-28T10:21:24.979Z,6.70
2022-11-28T10:24:48.217Z,6.70
2022-11-28T10:28:14.176Z,6.80
2022-11-28T10:31:36.851Z,6.90
2022-11-28T10:35:00.314Z,7.00
2022-11-28T10:38:25.368Z,7.10
2022-11-28T10:41:49.712Z,7.20
2022-11-28T10:45:17.865Z,7.30
2022-11-28T10:48:45.029Z,7.30
2022-11-28T10:52:11.316Z,7.30
2022-11-28T10:55:36.973Z,7.30
2022-11-28T10:59:01.203Z,7.30
2022-11-28T11:02:29.173Z,7.40
2022-11-28T11:05:50.753Z,7.50
2022-11-28T11:09:12.914Z,7.60
2022-11-28T11:12:34.496Z,7.80
2022-11-28T11:15:57.840Z,7.90
2022-11-28T11:19:24.546Z,8.00
2022-11-28T11:22:53.579Z,8.10
2022-11-28T11:26:23.314Z,8.10
2022-11-28T11:29:46.700Z,8.10
2022-11-28T11:33:14.250Z,8.20
2022-11-28T11:36:37.485Z,8.30
2022-11-28T11:39:59.686Z,8.20
2022-11-28T11:43:23.912Z,8.20
2022-11-28T11:46:50.583Z,8.20
2022-11-28T11:50:15.848Z,8.30
2022-11-28T11:53:38.771Z,8.40
2022-11-28T11:57:30.912Z,8.50
2022-11-28T12:00:42.988Z,8.60
2022-11-28T12:04:23.742Z,8.60
2022-11-28T12:07:53.851Z,8.70
2022-11-28T12:11:18.419Z,8.60
2022-11-28T12:14:40.333Z,8.60
2022-11-28T12:18:09.495Z,8.60
2022-11-28T12:21:35.311Z,8.60
2022-11-28T12:25:02.631Z,8.60
2022-11-28T12:28:32.861Z,8.50
2022-11-28T12:31:58.400Z,8.40
2022-11-28T12:35:24.499Z,8.30
2022-11-28T12:39:03.974Z,8.20
2022-11-28T12:42:33.058Z,8.10
2022-11-28T12:45:59.725Z,8.00
2022-11-28T12:49:27.027Z,8.00
2022-11-28T12:52:51.981Z,8.00
2022-11-28T12:56:22.752Z,7.90
2022-11-28T12:59:49.159Z,7.90
2022-11-28T13:03:19.558Z,7.90
2022-11-28T13:06:44.230Z,7.90
2022-11-28T13:10:09.923Z,8.00
2022-11-28T13:13:32.678Z,7.90
2022-11-28T13:16:55.180Z,7.90
2022-11-28T13:20:21.666Z,7.90
2022-11-28T13:23:46.200Z,7.90
2022-11-28T13:27:11.273Z,7.90
2022-11-28T13:30:35.512Z,7.80
2022-11-28T13:33:57.671Z,7.70
2022-11-28T13:41:28.513Z,7.70
2022-11-28T13:44:57.974Z,7.80
2022-11-28T13:52:41.146Z,7.70
2022-11-28T13:56:22.914Z,7.70
2022-11-28T13:59:47.288Z,7.60
2022-11-28T14:03:16.941Z,7.60
2022-11-28T14:06:42.349Z,7.60
2022-11-28T14:10:18.045Z,7.60
2022-11-28T14:13:47.381Z,7.50
2022-11-28T14:17:16.723Z,7.50
2022-11-28T14:20:43.752Z,7.50
2022-11-28T14:24:13.274Z,7.40
2022-11-28T14:27:38.530Z,7.40
2022-11-28T14:31:01.898Z,7.40
2022-11-28T14:34:36.699Z,7.50
2022-11-28T14:37:59.180Z,7.50
2022-11-28T14:41:20.791Z,7.50
2022-11-28T14:44:48.204Z,7.50
2022-11-28T14:48:28.823Z,7.40
2022-11-28T14:52:30.853Z,7.40
2022-11-28T14:55:49.174Z,7.40
2022-11-28T14:59:11.109Z,7.30
2022-11-28T15:02:50.169Z,7.30
2022-11-28T15:06:15.790Z,7.20
2022-11-28T15:09:38.409Z,7.10
2022-11-28T15:13:05.174Z,7.20
2022-11-28T15:16:28.546Z,7.10
2022-11-28T15:19:51.546Z,7.10
2022-11-28T15:23:21.815Z,7.10
2022-11-28T15:26:43.399Z,7.00
2022-11-28T15:30:15.611Z,7.00
2022-11-28T15:33:39.344Z,6.90
2022-11-28T15:37:04.252Z,6.90
2022-11-28T15:40:27.631Z,6.80
2022-11-28T15:43:49.560Z,6.80
2022-11-28T15:47:15.910Z,6.80
2022-11-28T15:50:37.493Z,6.80
2022-11-28T15:54:00.464Z,6.80
2022-11-28T15:57:22.909Z,6.80
2022-11-28T16:00:47.284Z,6.80
2022-11-28T16:04:13.277Z,6.80
2022-11-28T16:07:40.491Z,6.80
2022-11-28T16:11:05.508Z,6.70
2022-11-28T16:14:28.208Z,6.70
2022-11-28T16:17:49.895Z,6.70
2022-11-28T16:21:12.403Z,6.70
2022-11-28T16:24:43.236Z,6.70
2022-11-28T16:28:26.317Z,6.70
2022-11-28T16:31:49.507Z,6.60
2022-11-28T16:35:11.995Z,6.60
2022-11-28T16:38:33.727Z,6.60
2022-11-28T16:42:06.217Z,6.60
2022-11-28T16:45:29.182Z,6.60
2022-11-28T16:48:55.717Z,6.60
2022-11-28T16:52:39.904Z,6.60
2022-11-28T16:56:01.605Z,6.60
2022-11-28T16:59:23.954Z,6.60
2022-11-28T17:02:45.569Z,6.50
2022-11-28T17:06:13.198Z,6.50
2022-11-28T17:09:34.783Z,6.50
2022-11-28T17:12:56.890Z,6.50
2022-11-28T17:16:19.627Z,6.40
2022-11-28T17:19:42.301Z,6.40
2022-11-28T17:23:05.477Z,6.40
2022-11-28T17:26:27.219Z,6.40
2022-11-28T17:29:49.246Z,6.40
2022-11-28T17:33:14.688Z,6.40
2022-11-28T17:36:36.273Z,6.40
2022-11-28T17:39:59.265Z,6.40
2022-11-28T17:43:21.464Z,6.50
2022-11-28T17:46:43.035Z,6.50
2022-11-28T17:50:05.287Z,6.50
2022-11-28T17:53:26.864Z,6.50
2022-11-28T17:56:50.144Z,6.60
2022-11-28T18:00:14.268Z,6.50
2022-11-28T18:03:35.921Z,6.50
2022-11-28T18:06:57.515Z,6.50
2022-11-28T18:10:19.377Z,6.50
2022-11-28T18:13:42.607Z,6.50
2022-11-28T18:17:04.269Z,6.50
2022-11-28T18:20:25.987Z,6.50
2022-11-28T18:23:48.124Z,6.50
2022-11-28T18:27:09.909Z,6.50
2022-11-28T18:30:33.047Z,6.50
2022-11-28T18:34:00.425Z,6.50
2022-11-28T18:37:23.431Z,6.50
2022-11-28T18:40:45.164Z,6.60
2022-11-28T18:44:06.792Z,6.60
2022-11-28T18:47:29.886Z,6.60
2022-11-28T18:50:51.570Z,6.50
2022-11-28T18:54:17.626Z,6.50
2022-11-28T18:57:42.362Z,6.50
2022-11-28T19:01:08.124Z,6.50
2022-11-28T19:04:31.407Z,6.50
2022-11-28T19:07:53.441Z,6.50
2022-11-28T19:11:16.669Z,6.50
2022-11-28T19:14:38.332Z,6.50
2022-11-28T19:17:59.912Z,6.50
2022-11-28T19:21:23.540Z,6.50
2022-11-28T19:24:45.218Z,6.50
2022-11-28T19:28:06.800Z,6.50
2022-11-28T19:31:29.264Z,6.50
2022-11-28T19:34:50.900Z,6.50
2022-11-28T19:38:13.888Z,6.50
2022-11-28T19:41:35.536Z,6.50
2022-11-28T19:44:57.099Z,6.50
2022-11-28T19:48:18.799Z,6.50
2022-11-28T19:51:40.405Z,6.40
2022-11-28T19:55:03.434Z,6.40
2022-11-28T19:58:25.005Z,6.40
2022-11-28T20:01:46.756Z,6.40
2022-11-28T20:05:08.929Z,6.40
2022-11-28T20:08:30.627Z,6.40
2022-11-28T20:11:53.571Z,6.40
2022-11-28T20:15:18.363Z,6.40
2022-11-28T20:18:41.019Z,6.40
2022-11-28T20:22:02.670Z,6.40
2022-11-28T20:25:24.457Z,6.40
2022-11-28T20:28:47.767Z,6.40
2022-11-28T20:32:09.435Z,6.40
2022-11-28T20:35:31.064Z,6.40
2022-11-28T20:38:53.405Z,6.40
2022-11-28T20:42:15.199Z,6.40
2022-11-28T20:45:38.299Z,6.40
2022-11-28T20:49:01.193Z,6.40
2022-11-28T20:52:22.782Z,6.40
2022-11-28T20:55:45.569Z,6.40
2022-11-28T20:59:07.407Z,6.40
2022-11-28T21:02:31.243Z,6.40
2022-11-28T21:05:59.393Z,6.30
2022-11-28T21:09:22.670Z,6.30
2022-11-28T21:12:44.241Z,6.30
2022-11-28T21:16:06.975Z,6.30
2022-11-28T21:19:29.957Z,6.30
2022-11-28T21:22:51.559Z,6.30
2022-11-28T21:26:14.175Z,6.30
2022-11-28T21:29:35.739Z,6.30
2022-11-28T21:32:57.352Z,6.30
2022-11-28T21:36:20.803Z,6.30
2022-11-28T21:39:42.734Z,6.30
2022-11-28T21:43:04.635Z,6.30
2022-11-28T21:46:26.756Z,6.30
2022-11-28T21:49:48.353Z,6.40
2022-11-28T21:53:11.292Z,6.40
2022-11-28T21:56:32.877Z,6.40
2022-11-28T21:59:54.470Z,6.40
2022-11-28T22:03:16.132Z,6.40
2022-11-28T22:06:37.744Z,6.40
2022-11-28T22:10:00.665Z,6.40
2022-11-28T22:13:22.242Z,6.40
2022-11-28T22:16:43.838Z,6.40
2022-11-28T22:20:06.285Z,6.40
2022-11-28T22:23:27.894Z,6.40
2022-11-28T22:26:50.856Z,6.40
2022-11-28T22:30:12.631Z,6.40
2022-11-28T22:33:34.242Z,6.40
2022-11-28T22:36:55.816Z,6.40
2022-11-28T22:40:17.413Z,6.40
2022-11-28T22:43:40.401Z,6.40
2022-11-28T22:47:01.991Z,6.40
2022-11-28T22:50:23.605Z,6.40
2022-11-28T22:53:45.283Z,6.40
2022-11-28T22:57:06.844Z,6.40
2022-11-28T23:00:29.795Z,6.40
2022-11-28T23:03:51.590Z,6.40
2022-11-28T23:07:13.217Z,6.40
2022-11-28T23:10:36.838Z,6.40
2022-11-28T23:13:58.674Z,6.40
2022-11-28T23:17:21.615Z,6.40
2022-11-28T23:20:43.188Z,6.40
2022-11-28T23:24:05.277Z,6.40
2022-11-28T23:27:28.005Z,6.30
2022-11-28T23:30:49.599Z,6.40
2022-11-28T23:34:12.729Z,6.40
2022-11-28T23:37:36.664Z,6.40
2022-11-28T23:40:58.248Z,6.40
2022-11-28T23:44:20.008Z,6.40
2022-11-28T23:47:41.585Z,6.30
2022-11-28T23:51:04.837Z,6.40
2022-11-28T23:54:26.412Z,6.30
2022-11-28T23:57:47.993Z,6.30
